createdAt,value
2018-12-23T00:02:13.143Z,48.96
2018-12-23T00:04:42.324Z,48.83
2018-12-23T00:07:11.427Z,48.78
2018-12-23T00:09:40.617Z,49.11
2018-12-23T00:12:09.917Z,48.67
2018-12-23T00:14:39.127Z,49.11
2018-12-23T00:17:08.218Z,48.76
2018-12-23T00:19:37.990Z,49.03
2018-12-23T00:22:07.306Z,49.27
2018-12-23T00:24:36.580Z,48.75
2018-12-23T00:27:05.709Z,48.99
2018-12-23T00:29:35.012Z,49.29
2018-12-23T00:32:04.723Z,49.21
2018-12-23T00:34:33.939Z,49.34
2018-12-23T00:37:03.124Z,49.30
2018-12-23T00:39:32.065Z,49.25
2018-12-23T00:42:00.990Z,49.30
2018-12-23T00:44:30.262Z,49.61
2018-12-23T00:46:59.989Z,49.62
2018-12-23T00:49:29.290Z,49.46
2018-12-23T00:51:58.606Z,49.63
2018-12-23T00:54:27.891Z,49.46
2018-12-23T00:56:57.089Z,49.41
2018-12-23T00:59:26.078Z,49.44
2018-12-23T01:01:55.595Z,49.36
2018-12-23T01:04:24.781Z,49.36
2018-12-23T01:06:54.098Z,49.54
2018-12-23T01:09:23.432Z,49.89
2018-12-23T01:11:52.545Z,49.49
2018-12-23T01:14:21.877Z,49.86
2018-12-23T01:16:51.474Z,49.77
2018-12-23T01:19:20.682Z,49.94
2018-12-23T01:21:49.786Z,49.98
2018-12-23T01:24:18.871Z,50.02
2018-12-23T01:26:48.181Z,49.92
2018-12-23T01:29:17.222Z,49.86
2018-12-23T01:31:46.345Z,50.24
2018-12-23T01:34:15.546Z,49.91
2018-12-23T01:36:44.516Z,49.88
2018-12-23T01:39:13.842Z,49.98
2018-12-23T01:41:42.975Z,50.07
2018-12-23T01:44:12.334Z,50.22
2018-12-23T01:46:41.438Z,50.04
2018-12-23T01:49:10.640Z,49.97
2018-12-23T01:51:39.822Z,50.13
2018-12-23T01:54:08.718Z,50.10
2018-12-23T01:56:37.702Z,50.05
2018-12-23T01:59:07.206Z,50.47
2018-12-23T02:01:36.502Z,50.17
2018-12-23T02:04:05.818Z,50.28
2018-12-23T02:06:35.105Z,50.28
2018-12-23T02:09:05.293Z,50.15
2018-12-23T02:11:34.740Z,50.25
2018-12-23T02:14:05.614Z,50.80
2018-12-23T02:16:34.865Z,50.47
2018-12-23T02:19:04.070Z,50.48
2018-12-23T02:21:33.250Z,50.52
2018-12-23T02:24:02.222Z,50.54
2018-12-23T02:26:31.442Z,50.40
2018-12-23T02:29:00.541Z,50.17
2018-12-23T02:31:29.829Z,50.41
2018-12-23T02:33:59.048Z,50.72
2018-12-23T02:36:28.333Z,50.41
2018-12-23T02:38:57.733Z,50.59
2018-12-23T02:41:31.736Z,50.54
2018-12-23T02:43:58.494Z,50.58
2018-12-23T02:46:27.571Z,50.82
2018-12-23T02:48:56.994Z,50.69
2018-12-23T02:51:26.081Z,50.71
2018-12-23T02:53:55.282Z,50.91
2018-12-23T02:56:24.470Z,50.58
2018-12-23T02:58:54.038Z,50.63
2018-12-23T03:01:23.259Z,50.53
2018-12-23T03:03:52.483Z,50.72
2018-12-23T03:06:21.778Z,50.59
2018-12-23T03:08:51.637Z,50.88
2018-12-23T03:11:20.981Z,50.62
2018-12-23T03:13:50.285Z,50.83
2018-12-23T03:16:19.585Z,50.60
2018-12-23T03:18:48.781Z,50.73
2018-12-23T03:21:18.178Z,51.01
2018-12-23T03:23:48.246Z,50.86
2018-12-23T03:26:17.493Z,50.44
2018-12-23T03:28:46.599Z,50.76
2018-12-23T03:31:15.559Z,51.07
2018-12-23T03:33:44.887Z,50.83
2018-12-23T03:36:15.264Z,50.95
2018-12-23T03:38:44.658Z,50.70
2018-12-23T03:41:14.005Z,50.89
2018-12-23T03:43:55.793Z,51.11
2018-12-23T03:46:25.055Z,50.96
2018-12-23T03:48:54.450Z,51.02
2018-12-23T03:51:23.650Z,50.92
2018-12-23T03:53:53.055Z,51.08
2018-12-23T03:56:22.973Z,51.03
2018-12-23T03:58:52.214Z,50.83
2018-12-23T04:01:21.573Z,51.02
2018-12-23T04:03:50.678Z,51.03
2018-12-23T04:06:24.402Z,51.33
2018-12-23T04:08:51.727Z,51.03
2018-12-23T04:11:20.942Z,51.15
2018-12-23T04:13:50.226Z,50.98
2018-12-23T04:16:19.540Z,51.14
2018-12-23T04:18:48.830Z,51.19
2018-12-23T04:21:18.632Z,50.80
2018-12-23T04:23:48.251Z,51.00
2018-12-23T04:26:17.549Z,50.92
2018-12-23T04:28:46.964Z,51.37
2018-12-23T04:31:16.338Z,51.07
2018-12-23T04:33:45.641Z,51.28
2018-12-23T04:36:15.637Z,50.78
2018-12-23T04:38:45.049Z,51.09
2018-12-23T04:41:14.169Z,51.09
2018-12-23T04:43:43.492Z,51.19
2018-12-23T04:46:12.853Z,50.87
2018-12-23T04:48:42.149Z,50.63
2018-12-23T04:51:12.062Z,50.99
2018-12-23T04:53:41.571Z,51.68
2018-12-23T04:56:10.777Z,51.18
2018-12-23T04:58:40.153Z,50.88
2018-12-23T05:01:09.482Z,50.69
2018-12-23T05:03:42.877Z,50.84
2018-12-23T05:06:10.310Z,50.88
2018-12-23T05:08:39.418Z,50.94
2018-12-23T05:11:08.541Z,50.84
2018-12-23T05:13:37.821Z,50.67
2018-12-23T05:16:07.117Z,50.63
2018-12-23T05:18:37.042Z,50.93
2018-12-23T05:21:06.373Z,51.21
2018-12-23T05:23:35.817Z,51.31
2018-12-23T05:26:04.862Z,50.93
2018-12-23T05:28:34.207Z,50.62
2018-12-23T05:31:03.719Z,50.47
2018-12-23T05:33:33.661Z,50.12
2018-12-23T05:36:02.697Z,50.67
2018-12-23T05:38:32.070Z,51.22
2018-12-23T05:41:01.534Z,51.34
2018-12-23T05:43:30.793Z,51.44
2018-12-23T05:46:00.173Z,50.85
2018-12-23T05:48:29.934Z,51.37
2018-12-23T05:50:59.249Z,50.83
2018-12-23T05:53:28.649Z,50.78
2018-12-23T05:55:56.639Z,50.91
2018-12-23T05:58:25.913Z,50.79
2018-12-23T06:00:55.829Z,50.66
2018-12-23T06:03:25.846Z,50.74
2018-12-23T06:05:55.146Z,51.00
2018-12-23T06:08:24.373Z,50.51
2018-12-23T06:10:53.622Z,50.40
2018-12-23T06:13:22.732Z,50.38
2018-12-23T06:15:52.445Z,50.18
2018-12-23T06:18:21.738Z,49.87
2018-12-23T06:20:50.941Z,49.83
2018-12-23T06:23:20.191Z,49.78
2018-12-23T06:25:49.521Z,49.71
2018-12-23T06:28:18.737Z,49.58
2018-12-23T06:30:48.325Z,49.44
2018-12-23T06:33:17.613Z,49.44
2018-12-23T06:35:46.954Z,49.36
2018-12-23T06:38:16.162Z,49.39
2018-12-23T06:40:45.313Z,49.07
2018-12-23T06:43:15.029Z,49.22
2018-12-23T06:45:44.433Z,49.07
2018-12-23T06:48:13.560Z,48.77
2018-12-23T06:50:42.811Z,48.99
2018-12-23T06:53:12.025Z,48.89
2018-12-23T06:55:41.222Z,48.86
2018-12-23T06:58:10.933Z,48.59
2018-12-23T07:00:40.982Z,48.37
2018-12-23T07:03:10.350Z,48.38
2018-12-23T07:05:39.554Z,48.39
2018-12-23T07:08:08.954Z,48.51
2018-12-23T07:10:38.233Z,48.45
2018-12-23T07:13:08.097Z,47.86
2018-12-23T07:15:37.468Z,48.23
2018-12-23T07:18:06.646Z,48.03
2018-12-23T07:20:35.837Z,47.87
2018-12-23T07:23:05.166Z,47.70
2018-12-23T07:25:34.446Z,48.12
2018-12-23T07:28:04.278Z,48.07
2018-12-23T07:30:33.657Z,47.59
2018-12-23T07:33:02.969Z,47.67
2018-12-23T07:35:32.274Z,47.55
2018-12-23T07:38:01.244Z,47.79
2018-12-23T07:40:30.569Z,47.45
2018-12-23T07:43:00.265Z,47.47
2018-12-23T07:45:29.580Z,47.48
2018-12-23T07:47:58.761Z,47.50
2018-12-23T07:50:28.084Z,47.52
2018-12-23T07:52:57.351Z,47.08
2018-12-23T07:55:27.189Z,46.91
2018-12-23T07:57:56.569Z,46.87
2018-12-23T08:00:25.781Z,47.25
2018-12-23T08:02:55.354Z,47.41
2018-12-23T08:05:24.623Z,47.40
2018-12-23T08:07:53.974Z,47.45
2018-12-23T08:10:23.797Z,47.17
2018-12-23T08:12:53.207Z,47.14
2018-12-23T08:15:22.492Z,46.92
2018-12-23T08:17:51.700Z,46.81
2018-12-23T08:20:21.078Z,46.89
2018-12-23T08:22:50.399Z,46.83
2018-12-23T08:25:20.723Z,47.26
2018-12-23T08:27:49.889Z,47.03
2018-12-23T08:30:19.157Z,47.32
2018-12-23T08:32:48.510Z,47.18
2018-12-23T08:35:17.639Z,47.02
2018-12-23T08:37:47.514Z,47.24
2018-12-23T08:40:16.698Z,46.99
2018-12-23T08:42:46.038Z,47.14
2018-12-23T08:45:15.301Z,47.18
2018-12-23T08:47:44.610Z,47.13
2018-12-23T08:50:13.918Z,47.25
2018-12-23T08:52:43.605Z,47.20
2018-12-23T08:55:12.846Z,46.99
2018-12-23T08:57:43.274Z,47.29
2018-12-23T09:00:15.147Z,47.37
2018-12-23T09:02:44.606Z,47.08
2018-12-23T09:05:13.833Z,47.33
2018-12-23T09:07:43.625Z,47.11
2018-12-23T09:10:12.805Z,47.20
2018-12-23T09:12:42.735Z,47.20
2018-12-23T09:15:12.045Z,47.40
2018-12-23T09:17:41.237Z,47.47
2018-12-23T09:20:10.498Z,47.20
2018-12-23T09:22:40.214Z,47.10
2018-12-23T09:25:09.625Z,47.04
2018-12-23T09:27:39.278Z,46.88
2018-12-23T09:30:09.634Z,47.21
2018-12-23T09:32:39.076Z,47.20
2018-12-23T09:35:08.858Z,47.39
2018-12-23T09:37:38.087Z,47.45
2018-12-23T09:40:08.427Z,47.18
2018-12-23T09:42:37.834Z,47.38
2018-12-23T09:45:07.440Z,47.25
2018-12-23T09:47:36.707Z,47.33
2018-12-23T09:50:06.680Z,46.76
2018-12-23T09:52:36.449Z,47.16
2018-12-23T09:55:06.041Z,47.11
2018-12-23T09:57:35.518Z,47.24
2018-12-23T10:00:04.754Z,47.37
2018-12-23T10:02:34.681Z,47.13
2018-12-23T10:05:04.791Z,47.23
2018-12-23T10:07:34.133Z,47.13
2018-12-23T10:10:03.473Z,47.15
2018-12-23T10:12:32.873Z,47.02
2018-12-23T10:15:02.231Z,46.71
2018-12-23T10:17:31.600Z,47.20
2018-12-23T10:20:01.569Z,47.12
2018-12-23T10:22:30.966Z,46.80
2018-12-23T10:25:00.093Z,47.08
2018-12-23T10:27:29.667Z,47.01
2018-12-23T10:29:58.876Z,47.11
2018-12-23T10:32:28.479Z,46.99
2018-12-23T10:34:57.726Z,46.75
2018-12-23T10:37:27.098Z,46.99
2018-12-23T10:39:56.427Z,47.03
2018-12-23T10:42:25.645Z,47.21
2018-12-23T10:44:55.025Z,46.91
2018-12-23T10:47:24.770Z,46.64
2018-12-23T10:49:54.140Z,47.04
2018-12-23T10:52:23.501Z,46.76
2018-12-23T10:54:52.692Z,46.69
2018-12-23T10:57:21.784Z,46.99
2018-12-23T10:59:51.069Z,46.51
2018-12-23T11:02:20.485Z,46.90
2018-12-23T11:04:49.798Z,46.76
2018-12-23T11:07:19.072Z,47.07
2018-12-23T11:09:49.573Z,46.77
2018-12-23T11:12:18.739Z,46.70
2018-12-23T11:14:48.221Z,46.47
2018-12-23T11:17:18.022Z,46.87
2018-12-23T11:19:47.358Z,46.70
2018-12-23T11:22:16.513Z,46.54
2018-12-23T11:24:45.825Z,46.94
2018-12-23T11:27:15.156Z,47.07
2018-12-23T11:29:44.422Z,46.78
2018-12-23T11:32:14.433Z,47.03
2018-12-23T11:34:43.772Z,46.87
2018-12-23T11:37:13.149Z,47.00
2018-12-23T11:39:42.386Z,46.74
2018-12-23T11:42:11.738Z,46.74
2018-12-23T11:44:41.572Z,46.45
2018-12-23T11:47:10.828Z,47.11
2018-12-23T11:49:39.974Z,47.08
2018-12-23T11:52:09.369Z,46.77
2018-12-23T11:54:38.810Z,46.56
2018-12-23T11:57:08.365Z,46.64
2018-12-23T11:59:38.041Z,46.88
2018-12-23T12:02:15.088Z,46.63
2018-12-23T12:04:38.908Z,46.38
2018-12-23T12:07:08.201Z,46.92
2018-12-23T12:09:37.424Z,46.96
2018-12-23T12:12:07.315Z,46.81
2018-12-23T12:14:36.493Z,46.95
2018-12-23T12:17:06.772Z,46.47
2018-12-23T12:19:36.658Z,46.80
2018-12-23T12:22:06.046Z,46.67
2018-12-23T12:24:35.165Z,46.46
2018-12-23T12:27:05.276Z,46.34
2018-12-23T12:29:34.558Z,46.78
2018-12-23T12:32:03.919Z,47.10
2018-12-23T12:34:33.154Z,46.90
2018-12-23T12:37:02.364Z,46.94
2018-12-23T12:39:31.565Z,46.91
2018-12-23T12:42:02.310Z,46.76
2018-12-23T12:44:31.590Z,46.81
2018-12-23T12:47:00.789Z,46.68
2018-12-23T12:49:30.368Z,46.82
2018-12-23T12:51:59.697Z,46.57
2018-12-23T12:54:28.893Z,46.64
2018-12-23T12:56:58.696Z,46.75
2018-12-23T12:59:27.778Z,46.83
2018-12-23T13:01:57.091Z,46.81
2018-12-23T13:04:27.432Z,46.61
2018-12-23T13:06:57.126Z,46.76
2018-12-23T13:09:26.326Z,46.64
2018-12-23T13:11:56.143Z,46.36
2018-12-23T13:14:25.269Z,46.65
2018-12-23T13:16:54.618Z,46.72
2018-12-23T13:19:24.399Z,46.66
2018-12-23T13:21:53.733Z,46.44
2018-12-23T13:24:22.929Z,46.81
2018-12-23T13:26:53.033Z,46.41
2018-12-23T13:29:22.748Z,46.72
2018-12-23T13:31:52.770Z,46.55
2018-12-23T13:34:23.416Z,46.30
2018-12-23T13:36:52.625Z,46.81
2018-12-23T13:39:22.329Z,46.86
2018-12-23T13:42:09.088Z,47.02
2018-12-23T13:44:52.417Z,46.41
2018-12-23T13:47:36.783Z,46.40
2018-12-23T13:50:24.140Z,46.80
2018-12-23T13:53:09.525Z,46.77
2018-12-23T13:57:56.786Z,46.39
2018-12-23T14:00:37.121Z,46.77
2018-12-23T14:03:13.981Z,46.96
2018-12-23T14:05:54.965Z,46.96
2018-12-23T14:13:11.326Z,47.10
2018-12-23T14:15:41.173Z,47.25
2018-12-23T14:18:10.832Z,46.97
2018-12-23T14:20:40.169Z,47.40
2018-12-23T14:23:09.502Z,47.73
2018-12-23T14:25:38.914Z,47.63
2018-12-23T14:28:08.184Z,47.89
2018-12-23T14:30:37.695Z,47.35
2018-12-23T14:33:07.253Z,47.26
2018-12-23T14:35:37.025Z,47.79
2018-12-23T14:38:07.649Z,47.91
2018-12-23T14:40:37.138Z,47.49
2018-12-23T14:43:06.493Z,47.87
2018-12-23T14:45:35.897Z,47.84
2018-12-23T14:48:05.934Z,48.02
2018-12-23T14:50:35.161Z,48.06
2018-12-23T14:53:06.297Z,48.23
2018-12-23T14:55:35.753Z,47.88
2018-12-23T14:58:05.413Z,47.95
2018-12-23T15:00:35.651Z,48.28
2018-12-23T15:03:05.009Z,47.89
2018-12-23T15:05:34.025Z,48.33
2018-12-23T15:08:03.127Z,47.99
2018-12-23T15:10:32.701Z,48.17
2018-12-23T15:13:01.913Z,48.38
2018-12-23T15:15:34.390Z,48.20
2018-12-23T15:18:03.326Z,47.98
2018-12-23T15:20:32.498Z,47.90
2018-12-23T15:23:01.849Z,48.32
2018-12-23T15:25:31.101Z,48.28
2018-12-23T15:28:00.374Z,48.38
2018-12-23T15:30:29.757Z,48.08
2018-12-23T15:32:58.957Z,47.65
2018-12-23T15:35:28.304Z,48.23
2018-12-23T15:37:57.449Z,48.04
2018-12-23T15:40:26.769Z,48.04
2018-12-23T15:42:56.070Z,48.77
2018-12-23T15:45:25.965Z,48.70
2018-12-23T15:47:55.968Z,48.53
2018-12-23T15:50:26.300Z,48.64
2018-12-23T15:52:56.610Z,48.33
2018-12-23T15:55:26.057Z,48.29
2018-12-23T15:57:55.443Z,48.02
2018-12-23T16:00:25.518Z,48.03
2018-12-23T16:02:56.524Z,48.04
2018-12-23T16:05:26.793Z,48.05
2018-12-23T16:07:56.225Z,48.11
2018-12-23T16:10:25.517Z,48.14
2018-12-23T16:12:54.749Z,47.98
2018-12-23T16:15:25.013Z,48.10
2018-12-23T16:17:54.429Z,47.82
2018-12-23T16:20:24.277Z,47.88
2018-12-23T16:22:53.557Z,47.92
2018-12-23T16:25:22.861Z,47.67
2018-12-23T16:27:52.234Z,47.78
2018-12-23T16:30:22.717Z,47.99
2018-12-23T16:32:52.113Z,47.94
2018-12-23T16:35:22.000Z,47.77
2018-12-23T16:37:51.481Z,47.59
2018-12-23T16:40:20.850Z,47.55
2018-12-23T16:42:50.130Z,47.88
2018-12-23T16:45:19.479Z,47.71
2018-12-23T16:47:48.790Z,47.80
2018-12-23T16:50:18.725Z,48.01
2018-12-23T16:52:48.066Z,47.49
2018-12-23T16:55:17.999Z,47.63
2018-12-23T16:57:47.405Z,47.52
2018-12-23T17:00:17.013Z,47.44
2018-12-23T17:02:46.045Z,47.56
2018-12-23T17:05:19.136Z,47.39
2018-12-23T17:07:48.454Z,47.51
2018-12-23T17:10:18.043Z,47.46
2018-12-23T17:12:47.385Z,47.44
2018-12-23T17:15:17.253Z,47.73
2018-12-23T17:17:46.553Z,47.43
2018-12-23T17:20:16.612Z,47.66
2018-12-23T17:22:46.760Z,47.40
2018-12-23T17:25:16.097Z,47.30
2018-12-23T17:27:46.186Z,47.09
2018-12-23T17:30:15.513Z,47.27
2018-12-23T17:32:46.193Z,47.35
2018-12-23T17:35:15.793Z,46.94
2018-12-23T17:37:45.037Z,46.94
2018-12-23T17:40:16.581Z,46.81
2018-12-23T17:42:45.790Z,47.21
2018-12-23T17:45:14.998Z,47.21
2018-12-23T17:47:44.853Z,47.07
2018-12-23T17:50:14.057Z,47.00
2018-12-23T17:52:43.287Z,46.52
2018-12-23T17:55:12.486Z,46.99
2018-12-23T17:57:42.124Z,46.72
2018-12-23T18:00:11.958Z,46.60
2018-12-23T18:02:41.499Z,46.46
2018-12-23T18:05:10.813Z,46.69
2018-12-23T18:07:39.996Z,46.39
2018-12-23T18:10:09.238Z,46.68
2018-12-23T18:12:38.693Z,46.71
2018-12-23T18:15:08.322Z,47.08
2018-12-23T18:17:38.754Z,46.84
2018-12-23T18:20:09.053Z,46.92
2018-12-23T18:22:38.287Z,46.77
2018-12-23T18:25:07.691Z,46.66
2018-12-23T18:27:37.046Z,46.91
2018-12-23T18:30:06.747Z,46.83
2018-12-23T18:32:35.861Z,47.02
2018-12-23T18:35:05.311Z,46.68
2018-12-23T18:37:34.642Z,47.01
2018-12-23T18:40:03.968Z,47.33
2018-12-23T18:42:33.371Z,47.06
2018-12-23T18:45:02.566Z,47.16
2018-12-23T18:47:32.007Z,47.35
2018-12-23T18:50:01.445Z,47.52
2018-12-23T18:52:31.364Z,47.28
2018-12-23T18:55:00.661Z,47.79
2018-12-23T18:57:33.596Z,48.05
2018-12-23T19:00:03.344Z,47.96
2018-12-23T19:02:40.470Z,48.14
2018-12-23T19:05:09.842Z,48.22
2018-12-23T19:07:40.305Z,48.49
2018-12-23T19:11:21.630Z,48.33
2018-12-23T19:16:09.882Z,47.99
2018-12-23T19:25:01.427Z,48.17
2018-12-23T19:29:45.589Z,47.89
2018-12-23T19:32:37.441Z,47.73
2018-12-23T19:39:22.894Z,47.96
2018-12-23T19:42:09.131Z,47.77
2018-12-23T19:45:55.411Z,47.62
2018-12-23T19:50:45.202Z,47.65
2018-12-23T19:53:32.564Z,47.39
2018-12-23T19:56:46.378Z,47.65
2018-12-23T19:59:54.100Z,47.65
2018-12-23T20:03:01.883Z,47.77
2018-12-23T20:06:09.856Z,47.04
2018-12-23T20:09:17.642Z,47.30
2018-12-23T20:12:25.629Z,47.68
2018-12-23T20:15:33.663Z,47.68
2018-12-23T20:18:41.441Z,47.60
2018-12-23T20:21:48.940Z,47.39
2018-12-23T20:24:56.527Z,47.58
2018-12-23T20:28:04.085Z,47.60
2018-12-23T20:31:12.266Z,47.80
2018-12-23T20:34:38.752Z,47.80
2018-12-23T20:37:37.541Z,47.65
2018-12-23T20:41:07.612Z,47.80
2018-12-23T20:44:15.519Z,47.22
2018-12-23T20:47:37.876Z,47.22
2018-12-23T20:50:33.218Z,47.01
2018-12-23T20:53:34.374Z,46.82
2018-12-23T20:56:42.089Z,47.63
2018-12-23T20:59:49.737Z,47.54
2018-12-23T21:02:57.712Z,47.63
2018-12-23T21:09:35.328Z,47.09
2018-12-23T21:12:43.227Z,47.09
2018-12-23T21:19:27.883Z,47.37
2018-12-23T21:22:35.737Z,47.31
2018-12-23T21:25:43.529Z,46.96
2018-12-23T21:28:59.042Z,46.96
2018-12-23T21:32:06.735Z,46.99
2018-12-23T21:38:30.908Z,46.23
2018-12-23T21:41:39.016Z,46.23
2018-12-23T21:44:46.818Z,47.93
2018-12-23T21:47:54.355Z,47.40
2018-12-23T21:54:40.400Z,47.91
2018-12-23T21:57:49.900Z,47.91
2018-12-23T22:00:57.682Z,48.24
2018-12-23T22:03:38.441Z,48.24
2018-12-23T22:06:19.488Z,48.41
2018-12-23T22:09:00.186Z,48.64
2018-12-23T22:11:41.236Z,47.89
2018-12-23T22:14:50.129Z,47.89
2018-12-23T22:17:38.600Z,47.60
2018-12-23T22:20:47.663Z,47.26
2018-12-23T22:23:49.104Z,47.49
2018-12-23T22:26:27.538Z,47.82
2018-12-23T22:36:01.374Z,47.75
2018-12-23T22:38:42.632Z,47.91
2018-12-23T22:41:52.972Z,47.91
2018-12-23T22:45:01.885Z,47.95
2018-12-23T22:48:10.771Z,48.06
2018-12-23T22:50:59.354Z,48.35
2018-12-23T22:54:07.412Z,48.64
2018-12-23T22:57:16.356Z,48.64
2018-12-23T23:03:24.990Z,49.23
2018-12-23T23:09:45.806Z,49.58
2018-12-23T23:12:44.988Z,49.30
2018-12-23T23:15:14.096Z,49.30
2018-12-23T23:21:01.787Z,50.12
2018-12-23T23:29:56.017Z,49.78
2018-12-23T23:32:44.162Z,50.16
2018-12-23T23:35:32.706Z,50.55
2018-12-23T23:38:02.124Z,50.55
2018-12-23T23:43:33.178Z,50.53
2018-12-23T23:46:02.371Z,50.54
2018-12-23T23:49:11.083Z,50.58
2018-12-23T23:51:59.650Z,50.90
2018-12-23T23:54:48.119Z,50.90
2018-12-23T23:57:56.970Z,50.86
